sensor_id;sensor_type;location;lat;lon;timestamp;P1;durP1;ratioP1;P2;durP2;ratioP2
53521;SDS011;39398;48.382;9.802;2022-11-09T00:00:03;3.15;;;2.40;;
53521;SDS011;39398;48.382;9.802;2022-11-09T00:01:06;5.32;;;2.50;;
53521;SDS011;39398;48.382;9.802;2022-11-09T00:02:07;3.53;;;2.58;;
53521;SDS011;39398;48.382;9.802;2022-11-09T00:03:09;4.07;;;2.63;;
53521;SDS011;39398;48.382;9.802;2022-11-09T00:04:10;4.15;;;2.58;;
53521;SDS011;39398;48.382;9.802;2022-11-09T00:05:12;4.22;;;3.00;;
53521;SDS011;39398;48.382;9.802;2022-11-09T00:06:15;3.22;;;2.50;;
53521;SDS011;39398;48.382;9.802;2022-11-09T00:07:16;5.85;;;2.67;;
53521;SDS011;39398;48.382;9.802;2022-11-09T00:08:18;4.55;;;2.50;;
53521;SDS011;39398;48.382;9.802;2022-11-09T00:09:19;5.97;;;2.40;;
53521;SDS011;39398;48.382;9.802;2022-11-09T00:10:21;4.80;;;2.60;;
53521;SDS011;39398;48.382;9.802;2022-11-09T00:11:22;4.88;;;2.72;;
53521;SDS011;39398;48.382;9.802;2022-11-09T00:12:24;4.75;;;2.35;;
53521;SDS011;39398;48.382;9.802;2022-11-09T00:13:26;4.43;;;2.83;;
53521;SDS011;39398;48.382;9.802;2022-11-09T00:14:27;3.25;;;2.65;;
53521;SDS011;39398;48.382;9.802;2022-11-09T00:15:28;3.72;;;2.53;;
53521;SDS011;39398;48.382;9.802;2022-11-09T00:16:30;3.47;;;2.72;;
53521;SDS011;39398;48.382;9.802;2022-11-09T00:17:32;3.92;;;2.60;;
53521;SDS011;39398;48.382;9.802;2022-11-09T00:18:33;6.10;;;2.83;;
53521;SDS011;39398;48.382;9.802;2022-11-09T00:19:35;3.70;;;2.65;;
53521;SDS011;39398;48.382;9.802;2022-11-09T00:20:37;3.25;;;2.55;;
53521;SDS011;39398;48.382;9.802;2022-11-09T00:21:44;3.40;;;2.45;;
53521;SDS011;39398;48.382;9.802;2022-11-09T00:22:46;3.60;;;2.55;;
53521;SDS011;39398;48.382;9.802;2022-11-09T00:23:47;4.55;;;2.80;;
53521;SDS011;39398;48.382;9.802;2022-11-09T00:24:50;4.88;;;2.50;;
53521;SDS011;39398;48.382;9.802;2022-11-09T00:25:51;7.32;;;2.60;;
53521;SDS011;39398;48.382;9.802;2022-11-09T00:26:52;3.00;;;2.50;;
53521;SDS011;39398;48.382;9.802;2022-11-09T00:27:54;3.53;;;2.53;;
53521;SDS011;39398;48.382;9.802;2022-11-09T00:28:55;4.32;;;2.80;;
53521;SDS011;39398;48.382;9.802;2022-11-09T00:29:57;4.70;;;2.60;;
53521;SDS011;39398;48.382;9.802;2022-11-09T00:30:58;3.20;;;2.55;;
53521;SDS011;39398;48.382;9.802;2022-11-09T00:32:00;5.13;;;2.70;;
53521;SDS011;39398;48.382;9.802;2022-11-09T00:33:02;5.13;;;2.83;;
53521;SDS011;39398;48.382;9.802;2022-11-09T00:34:03;7.53;;;2.47;;
53521;SDS011;39398;48.382;9.802;2022-11-09T00:35:05;3.45;;;2.50;;
53521;SDS011;39398;48.382;9.802;2022-11-09T00:36:08;3.75;;;2.60;;
53521;SDS011;39398;48.382;9.802;2022-11-09T00:37:12;4.40;;;2.83;;
53521;SDS011;39398;48.382;9.802;2022-11-09T00:38:14;5.10;;;2.20;;
53521;SDS011;39398;48.382;9.802;2022-11-09T00:39:15;2.90;;;2.58;;
53521;SDS011;39398;48.382;9.802;2022-11-09T00:40:17;5.10;;;3.28;;
53521;SDS011;39398;48.382;9.802;2022-11-09T00:41:19;3.22;;;2.42;;
53521;SDS011;39398;48.382;9.802;2022-11-09T00:42:21;4.90;;;2.90;;
53521;SDS011;39398;48.382;9.802;2022-11-09T00:43:22;6.47;;;3.20;;
53521;SDS011;39398;48.382;9.802;2022-11-09T00:44:23;4.88;;;2.47;;
53521;SDS011;39398;48.382;9.802;2022-11-09T00:45:25;5.65;;;2.72;;
53521;SDS011;39398;48.382;9.802;2022-11-09T00:46:26;4.32;;;2.80;;
53521;SDS011;39398;48.382;9.802;2022-11-09T00:47:28;4.60;;;2.75;;
53521;SDS011;39398;48.382;9.802;2022-11-09T00:48:29;7.32;;;2.55;;
53521;SDS011;39398;48.382;9.802;2022-11-09T00:49:31;3.58;;;2.80;;
53521;SDS011;39398;48.382;9.802;2022-11-09T00:50:33;3.97;;;2.70;;
53521;SDS011;39398;48.382;9.802;2022-11-09T00:51:34;7.20;;;2.70;;
53521;SDS011;39398;48.382;9.802;2022-11-09T00:52:37;4.35;;;2.60;;
53521;SDS011;39398;48.382;9.802;2022-11-09T00:53:38;5.13;;;2.38;;
53521;SDS011;39398;48.382;9.802;2022-11-09T00:54:40;7.07;;;2.80;;
53521;SDS011;39398;48.382;9.802;2022-11-09T00:55:41;4.85;;;2.50;;
53521;SDS011;39398;48.382;9.802;2022-11-09T00:56:43;3.40;;;2.47;;
53521;SDS011;39398;48.382;9.802;2022-11-09T00:57:44;4.07;;;2.78;;
53521;SDS011;39398;48.382;9.802;2022-11-09T00:58:51;4.75;;;2.47;;
53521;SDS011;39398;48.382;9.802;2022-11-09T00:59:53;5.07;;;2.80;;
53521;SDS011;39398;48.382;9.802;2022-11-09T01:00:54;3.45;;;2.50;;
53521;SDS011;39398;48.382;9.802;2022-11-09T01:01:57;6.07;;;2.90;;
53521;SDS011;39398;48.382;9.802;2022-11-09T01:02:58;4.72;;;3.00;;
53521;SDS011;39398;48.382;9.802;2022-11-09T01:04:00;5.47;;;2.40;;
53521;SDS011;39398;48.382;9.802;2022-11-09T01:05:01;4.57;;;3.00;;
53521;SDS011;39398;48.382;9.802;2022-11-09T01:06:03;5.15;;;2.60;;
53521;SDS011;39398;48.382;9.802;2022-11-09T01:07:06;4.25;;;2.60;;
53521;SDS011;39398;48.382;9.802;2022-11-09T01:08:09;5.57;;;2.72;;
53521;SDS011;39398;48.382;9.802;2022-11-09T01:09:11;4.88;;;2.88;;
53521;SDS011;39398;48.382;9.802;2022-11-09T01:10:12;4.05;;;2.50;;
53521;SDS011;39398;48.382;9.802;2022-11-09T01:11:14;5.40;;;2.63;;
53521;SDS011;39398;48.382;9.802;2022-11-09T01:12:17;5.18;;;2.60;;
53521;SDS011;39398;48.382;9.802;2022-11-09T01:13:19;5.85;;;2.92;;
53521;SDS011;39398;48.382;9.802;2022-11-09T01:14:22;3.97;;;2.72;;
53521;SDS011;39398;48.382;9.802;2022-11-09T01:15:24;3.35;;;2.60;;
53521;SDS011;39398;48.382;9.802;2022-11-09T01:16:26;5.40;;;2.65;;
53521;SDS011;39398;48.382;9.802;2022-11-09T01:17:27;4.20;;;2.50;;
53521;SDS011;39398;48.382;9.802;2022-11-09T01:18:29;3.08;;;2.42;;
53521;SDS011;39398;48.382;9.802;2022-11-09T01:19:30;3.67;;;2.50;;
53521;SDS011;39398;48.382;9.802;2022-11-09T01:20:32;4.75;;;2.70;;
53521;SDS011;39398;48.382;9.802;2022-11-09T01:21:33;3.53;;;2.50;;
53521;SDS011;39398;48.382;9.802;2022-11-09T01:22:35;3.47;;;2.88;;
53521;SDS011;39398;48.382;9.802;2022-11-09T01:23:38;4.55;;;2.53;;
53521;SDS011;39398;48.382;9.802;2022-11-09T01:24:40;3.13;;;2.38;;
53521;SDS011;39398;48.382;9.802;2022-11-09T01:25:41;3.58;;;2.17;;
53521;SDS011;39398;48.382;9.802;2022-11-09T01:26:43;2.65;;;2.25;;
53521;SDS011;39398;48.382;9.802;2022-11-09T01:27:45;2.28;;;2.03;;
53521;SDS011;39398;48.382;9.802;2022-11-09T01:28:46;5.47;;;2.50;;
53521;SDS011;39398;48.382;9.802;2022-11-09T01:29:47;3.45;;;2.40;;
53521;SDS011;39398;48.382;9.802;2022-11-09T01:30:49;6.13;;;2.70;;
53521;SDS011;39398;48.382;9.802;2022-11-09T01:31:52;3.20;;;2.20;;
53521;SDS011;39398;48.382;9.802;2022-11-09T01:32:54;4.05;;;2.45;;
53521;SDS011;39398;48.382;9.802;2022-11-09T01:33:56;3.45;;;2.47;;
53521;SDS011;39398;48.382;9.802;2022-11-09T01:34:57;5.47;;;2.47;;
53521;SDS011;39398;48.382;9.802;2022-11-09T01:36:03;4.35;;;2.60;;
53521;SDS011;39398;48.382;9.802;2022-11-09T01:37:05;4.57;;;2.63;;
53521;SDS011;39398;48.382;9.802;2022-11-09T01:38:07;3.90;;;2.40;;
53521;SDS011;39398;48.382;9.802;2022-11-09T01:39:10;4.53;;;2.60;;
53521;SDS011;39398;48.382;9.802;2022-11-09T01:40:12;5.85;;;2.47;;
53521;SDS011;39398;48.382;9.802;2022-11-09T01:41:14;4.18;;;2.65;;
53521;SDS011;39398;48.382;9.802;2022-11-09T01:42:20;4.55;;;2.42;;
53521;SDS011;39398;48.382;9.802;2022-11-09T01:43:23;4.63;;;2.58;;
53521;SDS011;39398;48.382;9.802;2022-11-09T01:44:25;4.30;;;2.40;;
53521;SDS011;39398;48.382;9.802;2022-11-09T01:45:28;4.75;;;2.70;;
53521;SDS011;39398;48.382;9.802;2022-11-09T01:46:32;4.78;;;3.13;;
53521;SDS011;39398;48.382;9.802;2022-11-09T01:47:36;3.35;;;2.47;;
53521;SDS011;39398;48.382;9.802;2022-11-09T01:48:39;4.28;;;2.50;;
53521;SDS011;39398;48.382;9.802;2022-11-09T01:49:45;3.20;;;2.50;;
53521;SDS011;39398;48.382;9.802;2022-11-09T01:50:50;3.10;;;2.45;;
53521;SDS011;39398;48.382;9.802;2022-11-09T01:51:57;3.83;;;2.60;;
53521;SDS011;39398;48.382;9.802;2022-11-09T01:53:02;7.47;;;2.92;;
53521;SDS011;39398;48.382;9.802;2022-11-09T01:54:11;3.88;;;2.60;;
53521;SDS011;39398;48.382;9.802;2022-11-09T01:55:18;3.67;;;2.60;;
53521;SDS011;39398;48.382;9.802;2022-11-09T01:56:23;4.32;;;2.78;;
53521;SDS011;39398;48.382;9.802;2022-11-09T01:57:28;6.07;;;2.70;;
53521;SDS011;39398;48.382;9.802;2022-11-09T01:58:36;5.65;;;2.50;;
53521;SDS011;39398;48.382;9.802;2022-11-09T01:59:42;3.45;;;2.15;;
53521;SDS011;39398;48.382;9.802;2022-11-09T02:00:48;3.97;;;2.70;;
53521;SDS011;39398;48.382;9.802;2022-11-09T02:01:51;4.55;;;2.53;;
53521;SDS011;39398;48.382;9.802;2022-11-09T02:02:54;3.28;;;2.38;;
53521;SDS011;39398;48.382;9.802;2022-11-09T02:03:59;6.20;;;2.60;;
53521;SDS011;39398;48.382;9.802;2022-11-09T02:05:06;5.07;;;2.35;;
53521;SDS011;39398;48.382;9.802;2022-11-09T02:06:11;3.97;;;2.60;;
53521;SDS011;39398;48.382;9.802;2022-11-09T02:07:16;3.20;;;2.45;;
53521;SDS011;39398;48.382;9.802;2022-11-09T02:08:19;4.65;;;2.53;;
53521;SDS011;39398;48.382;9.802;2022-11-09T02:09:28;4.05;;;2.78;;
53521;SDS011;39398;48.382;9.802;2022-11-09T02:10:36;5.35;;;2.25;;
53521;SDS011;39398;48.382;9.802;2022-11-09T02:11:42;4.15;;;2.67;;
53521;SDS011;39398;48.382;9.802;2022-11-09T02:12:43;3.55;;;2.50;;
53521;SDS011;39398;48.382;9.802;2022-11-09T02:13:46;4.05;;;2.72;;
53521;SDS011;39398;48.382;9.802;2022-11-09T02:14:49;5.15;;;2.58;;
53521;SDS011;39398;48.382;9.802;2022-11-09T02:15:52;2.97;;;2.28;;
53521;SDS011;39398;48.382;9.802;2022-11-09T02:16:54;5.00;;;2.60;;
53521;SDS011;39398;48.382;9.802;2022-11-09T02:17:56;4.65;;;2.35;;
53521;SDS011;39398;48.382;9.802;2022-11-09T02:18:58;4.57;;;2.50;;
53521;SDS011;39398;48.382;9.802;2022-11-09T02:20:00;5.95;;;2.38;;
53521;SDS011;39398;48.382;9.802;2022-11-09T02:21:03;6.40;;;2.88;;
53521;SDS011;39398;48.382;9.802;2022-11-09T02:22:04;3.70;;;2.20;;
53521;SDS011;39398;48.382;9.802;2022-11-09T02:23:06;4.78;;;2.50;;
53521;SDS011;39398;48.382;9.802;2022-11-09T02:24:08;2.47;;;2.28;;
53521;SDS011;39398;48.382;9.802;2022-11-09T02:25:11;3.05;;;2.17;;
53521;SDS011;39398;48.382;9.802;2022-11-09T02:26:15;3.30;;;1.88;;
53521;SDS011;39398;48.382;9.802;2022-11-09T02:27:22;3.20;;;2.50;;
53521;SDS011;39398;48.382;9.802;2022-11-09T02:28:24;4.00;;;2.35;;
53521;SDS011;39398;48.382;9.802;2022-11-09T02:29:29;2.85;;;2.05;;
53521;SDS011;39398;48.382;9.802;2022-11-09T02:30:35;4.75;;;2.25;;
53521;SDS011;39398;48.382;9.802;2022-11-09T02:31:37;3.97;;;2.28;;
53521;SDS011;39398;48.382;9.802;2022-11-09T02:32:43;4.80;;;2.30;;
53521;SDS011;39398;48.382;9.802;2022-11-09T02:33:51;3.42;;;2.22;;
53521;SDS011;39398;48.382;9.802;2022-11-09T02:34:53;4.47;;;2.35;;
53521;SDS011;39398;48.382;9.802;2022-11-09T02:35:54;4.18;;;2.08;;
53521;SDS011;39398;48.382;9.802;2022-11-09T02:36:57;2.85;;;2.20;;
53521;SDS011;39398;48.382;9.802;2022-11-09T02:37:59;4.95;;;2.25;;
53521;SDS011;39398;48.382;9.802;2022-11-09T02:39:00;6.45;;;2.30;;
53521;SDS011;39398;48.382;9.802;2022-11-09T02:40:03;3.10;;;2.25;;
53521;SDS011;39398;48.382;9.802;2022-11-09T02:41:09;3.20;;;2.40;;
53521;SDS011;39398;48.382;9.802;2022-11-09T02:42:13;3.35;;;2.22;;
53521;SDS011;39398;48.382;9.802;2022-11-09T02:43:21;3.88;;;1.88;;
53521;SDS011;39398;48.382;9.802;2022-11-09T02:44:23;3.25;;;2.10;;
53521;SDS011;39398;48.382;9.802;2022-11-09T02:45:26;4.07;;;2.20;;
53521;SDS011;39398;48.382;9.802;2022-11-09T02:46:29;4.18;;;2.35;;
53521;SDS011;39398;48.382;9.802;2022-11-09T02:47:32;2.97;;;2.30;;
53521;SDS011;39398;48.382;9.802;2022-11-09T02:48:33;4.72;;;2.25;;
53521;SDS011;39398;48.382;9.802;2022-11-09T02:49:35;4.20;;;2.20;;
53521;SDS011;39398;48.382;9.802;2022-11-09T02:50:36;2.17;;;2.03;;
53521;SDS011;39398;48.382;9.802;2022-11-09T02:51:38;4.43;;;2.05;;
53521;SDS011;39398;48.382;9.802;2022-11-09T02:52:41;3.92;;;2.40;;
53521;SDS011;39398;48.382;9.802;2022-11-09T02:53:42;3.80;;;2.30;;
53521;SDS011;39398;48.382;9.802;2022-11-09T02:54:44;4.18;;;2.00;;
53521;SDS011;39398;48.382;9.802;2022-11-09T02:55:45;3.00;;;2.03;;
53521;SDS011;39398;48.382;9.802;2022-11-09T02:56:47;3.10;;;2.20;;
53521;SDS011;39398;48.382;9.802;2022-11-09T02:57:48;4.72;;;2.13;;
53521;SDS011;39398;48.382;9.802;2022-11-09T02:58:49;6.68;;;2.20;;
53521;SDS011;39398;48.382;9.802;2022-11-09T02:59:51;4.10;;;2.42;;
53521;SDS011;39398;48.382;9.802;2022-11-09T03:00:52;3.72;;;2.25;;
53521;SDS011;39398;48.382;9.802;2022-11-09T03:01:54;4.20;;;2.15;;
53521;SDS011;39398;48.382;9.802;2022-11-09T03:02:55;3.80;;;2.17;;
53521;SDS011;39398;48.382;9.802;2022-11-09T03:03:57;5.72;;;2.30;;
53521;SDS011;39398;48.382;9.802;2022-11-09T03:04:58;3.78;;;2.22;;
53521;SDS011;39398;48.382;9.802;2022-11-09T03:06:00;2.78;;;2.00;;
53521;SDS011;39398;48.382;9.802;2022-11-09T03:07:01;3.33;;;2.20;;
53521;SDS011;39398;48.382;9.802;2022-11-09T03:08:04;4.22;;;2.33;;
53521;SDS011;39398;48.382;9.802;2022-11-09T03:09:06;2.65;;;1.90;;
53521;SDS011;39398;48.382;9.802;2022-11-09T03:10:09;7.10;;;2.30;;
53521;SDS011;39398;48.382;9.802;2022-11-09T03:11:10;3.33;;;2.10;;
53521;SDS011;39398;48.382;9.802;2022-11-09T03:12:12;3.75;;;2.10;;
53521;SDS011;39398;48.382;9.802;2022-11-09T03:13:14;3.25;;;2.00;;
53521;SDS011;39398;48.382;9.802;2022-11-09T03:14:15;2.25;;;1.92;;
53521;SDS011;39398;48.382;9.802;2022-11-09T03:15:17;3.95;;;1.95;;
53521;SDS011;39398;48.382;9.802;2022-11-09T03:16:18;2.65;;;2.10;;
53521;SDS011;39398;48.382;9.802;2022-11-09T03:17:20;3.45;;;2.00;;
53521;SDS011;39398;48.382;9.802;2022-11-09T03:18:21;4.30;;;2.00;;
53521;SDS011;39398;48.382;9.802;2022-11-09T03:19:23;2.75;;;2.08;;
53521;SDS011;39398;48.382;9.802;2022-11-09T03:20:24;2.85;;;2.08;;
53521;SDS011;39398;48.382;9.802;2022-11-09T03:21:26;5.10;;;2.00;;
53521;SDS011;39398;48.382;9.802;2022-11-09T03:22:28;3.10;;;2.00;;
53521;SDS011;39398;48.382;9.802;2022-11-09T03:23:31;5.20;;;2.10;;
53521;SDS011;39398;48.382;9.802;2022-11-09T03:24:33;2.88;;;2.15;;
53521;SDS011;39398;48.382;9.802;2022-11-09T03:25:35;2.80;;;1.77;;
53521;SDS011;39398;48.382;9.802;2022-11-09T03:26:36;4.47;;;2.30;;
53521;SDS011;39398;48.382;9.802;2022-11-09T03:27:38;3.47;;;2.00;;
53521;SDS011;39398;48.382;9.802;2022-11-09T03:28:39;2.90;;;2.00;;
53521;SDS011;39398;48.382;9.802;2022-11-09T03:29:41;4.45;;;2.55;;
53521;SDS011;39398;48.382;9.802;2022-11-09T03:30:42;3.28;;;1.98;;
53521;SDS011;39398;48.382;9.802;2022-11-09T03:31:44;3.63;;;2.28;;
53521;SDS011;39398;48.382;9.802;2022-11-09T03:32:45;5.15;;;1.98;;
53521;SDS011;39398;48.382;9.802;2022-11-09T03:33:51;2.95;;;1.92;;
53521;SDS011;39398;48.382;9.802;2022-11-09T03:34:52;3.72;;;2.58;;
53521;SDS011;39398;48.382;9.802;2022-11-09T03:35:53;3.55;;;1.80;;
53521;SDS011;39398;48.382;9.802;2022-11-09T03:36:55;2.85;;;1.85;;
53521;SDS011;39398;48.382;9.802;2022-11-09T03:37:56;3.30;;;2.25;;
53521;SDS011;39398;48.382;9.802;2022-11-09T03:38:59;2.95;;;2.00;;
53521;SDS011;39398;48.382;9.802;2022-11-09T03:40:01;2.53;;;2.00;;
53521;SDS011;39398;48.382;9.802;2022-11-09T03:41:02;4.70;;;2.03;;
53521;SDS011;39398;48.382;9.802;2022-11-09T03:42:04;3.53;;;1.90;;
53521;SDS011;39398;48.382;9.802;2022-11-09T03:43:05;4.97;;;2.10;;
53521;SDS011;39398;48.382;9.802;2022-11-09T03:44:07;5.38;;;2.35;;
53521;SDS011;39398;48.382;9.802;2022-11-09T03:45:09;3.70;;;2.17;;
53521;SDS011;39398;48.382;9.802;2022-11-09T03:46:10;2.42;;;2.10;;
53521;SDS011;39398;48.382;9.802;2022-11-09T03:47:12;2.45;;;1.90;;
53521;SDS011;39398;48.382;9.802;2022-11-09T03:48:13;3.50;;;1.92;;
53521;SDS011;39398;48.382;9.802;2022-11-09T03:49:15;3.80;;;2.03;;
53521;SDS011;39398;48.382;9.802;2022-11-09T03:50:16;2.42;;;1.90;;
53521;SDS011;39398;48.382;9.802;2022-11-09T03:51:18;3.22;;;1.80;;
53521;SDS011;39398;48.382;9.802;2022-11-09T03:52:19;4.22;;;1.85;;
53521;SDS011;39398;48.382;9.802;2022-11-09T03:53:21;5.40;;;2.20;;
53521;SDS011;39398;48.382;9.802;2022-11-09T03:54:24;3.38;;;2.00;;
53521;SDS011;39398;48.382;9.802;2022-11-09T03:55:26;6.85;;;1.75;;
53521;SDS011;39398;48.382;9.802;2022-11-09T03:56:28;3.45;;;1.88;;
53521;SDS011;39398;48.382;9.802;2022-11-09T03:57:30;2.85;;;1.88;;
53521;SDS011;39398;48.382;9.802;2022-11-09T03:58:31;4.30;;;1.80;;
53521;SDS011;39398;48.382;9.802;2022-11-09T03:59:33;3.13;;;2.00;;
53521;SDS011;39398;48.382;9.802;2022-11-09T04:00:34;2.83;;;1.85;;
53521;SDS011;39398;48.382;9.802;2022-11-09T04:01:36;2.67;;;1.80;;
53521;SDS011;39398;48.382;9.802;2022-11-09T04:02:37;2.58;;;1.60;;
53521;SDS011;39398;48.382;9.802;2022-11-09T04:03:39;5.38;;;2.10;;
53521;SDS011;39398;48.382;9.802;2022-11-09T04:04:41;4.70;;;2.03;;
53521;SDS011;39398;48.382;9.802;2022-11-09T04:05:42;2.17;;;1.70;;
53521;SDS011;39398;48.382;9.802;2022-11-09T04:06:43;2.65;;;1.90;;
53521;SDS011;39398;48.382;9.802;2022-11-09T04:07:45;2.95;;;1.80;;
53521;SDS011;39398;48.382;9.802;2022-11-09T04:08:48;5.45;;;1.70;;
53521;SDS011;39398;48.382;9.802;2022-11-09T04:09:53;2.60;;;1.80;;
53521;SDS011;39398;48.382;9.802;2022-11-09T04:10:54;5.10;;;1.75;;
53521;SDS011;39398;48.382;9.802;2022-11-09T04:11:56;4.75;;;1.77;;
53521;SDS011;39398;48.382;9.802;2022-11-09T04:12:57;3.17;;;1.80;;
53521;SDS011;39398;48.382;9.802;2022-11-09T04:13:59;2.75;;;1.63;;
53521;SDS011;39398;48.382;9.802;2022-11-09T04:15:00;1.63;;;1.50;;
53521;SDS011;39398;48.382;9.802;2022-11-09T04:16:01;2.45;;;1.63;;
53521;SDS011;39398;48.382;9.802;2022-11-09T04:17:03;3.40;;;1.65;;
53521;SDS011;39398;48.382;9.802;2022-11-09T04:18:04;3.08;;;1.80;;
53521;SDS011;39398;48.382;9.802;2022-11-09T04:19:06;4.82;;;1.77;;
53521;SDS011;39398;48.382;9.802;2022-11-09T04:20:07;2.03;;;1.60;;
53521;SDS011;39398;48.382;9.802;2022-11-09T04:21:09;4.10;;;1.80;;
53521;SDS011;39398;48.382;9.802;2022-11-09T04:22:10;1.92;;;1.60;;
53521;SDS011;39398;48.382;9.802;2022-11-09T04:23:12;2.47;;;1.58;;
53521;SDS011;39398;48.382;9.802;2022-11-09T04:24:14;2.30;;;1.98;;
53521;SDS011;39398;48.382;9.802;2022-11-09T04:25:17;3.92;;;1.80;;
53521;SDS011;39398;48.382;9.802;2022-11-09T04:26:18;2.30;;;1.75;;
53521;SDS011;39398;48.382;9.802;2022-11-09T04:27:20;2.42;;;1.92;;
53521;SDS011;39398;48.382;9.802;2022-11-09T04:28:21;3.78;;;1.80;;
53521;SDS011;39398;48.382;9.802;2022-11-09T04:29:23;3.45;;;1.70;;
53521;SDS011;39398;48.382;9.802;2022-11-09T04:30:24;3.35;;;1.70;;
53521;SDS011;39398;48.382;9.802;2022-11-09T04:31:28;2.70;;;1.92;;
53521;SDS011;39398;48.382;9.802;2022-11-09T04:32:29;3.45;;;2.05;;
53521;SDS011;39398;48.382;9.802;2022-11-09T04:33:30;2.67;;;1.90;;
53521;SDS011;39398;48.382;9.802;2022-11-09T04:34:32;1.92;;;1.67;;
53521;SDS011;39398;48.382;9.802;2022-11-09T04:35:34;4.68;;;1.90;;
53521;SDS011;39398;48.382;9.802;2022-11-09T04:36:35;4.22;;;2.00;;
53521;SDS011;39398;48.382;9.802;2022-11-09T04:37:37;2.42;;;1.75;;
53521;SDS011;39398;48.382;9.802;2022-11-09T04:38:38;3.70;;;1.90;;
53521;SDS011;39398;48.382;9.802;2022-11-09T04:39:40;2.67;;;1.67;;
53521;SDS011;39398;48.382;9.802;2022-11-09T04:40:42;2.08;;;1.85;;
53521;SDS011;39398;48.382;9.802;2022-11-09T04:41:44;4.55;;;1.90;;
53521;SDS011;39398;48.382;9.802;2022-11-09T04:42:45;2.50;;;1.85;;
53521;SDS011;39398;48.382;9.802;2022-11-09T04:43:47;5.68;;;1.80;;
53521;SDS011;39398;48.382;9.802;2022-11-09T04:44:48;2.05;;;1.85;;
53521;SDS011;39398;48.382;9.802;2022-11-09T04:45:50;3.05;;;1.98;;
53521;SDS011;39398;48.382;9.802;2022-11-09T04:46:51;4.28;;;1.88;;
53521;SDS011;39398;48.382;9.802;2022-11-09T04:47:55;3.88;;;2.03;;
53521;SDS011;39398;48.382;9.802;2022-11-09T04:48:58;3.97;;;1.95;;
53521;SDS011;39398;48.382;9.802;2022-11-09T04:49:59;4.68;;;1.70;;
53521;SDS011;39398;48.382;9.802;2022-11-09T04:51:01;2.70;;;1.80;;
53521;SDS011;39398;48.382;9.802;2022-11-09T04:52:04;4.40;;;1.88;;
53521;SDS011;39398;48.382;9.802;2022-11-09T04:53:06;6.28;;;2.10;;
53521;SDS011;39398;48.382;9.802;2022-11-09T04:54:09;4.03;;;2.10;;
53521;SDS011;39398;48.382;9.802;2022-11-09T04:55:11;4.55;;;1.95;;
53521;SDS011;39398;48.382;9.802;2022-11-09T04:56:13;4.30;;;2.00;;
53521;SDS011;39398;48.382;9.802;2022-11-09T04:57:15;4.45;;;2.20;;
53521;SDS011;39398;48.382;9.802;2022-11-09T04:58:16;3.17;;;2.17;;
53521;SDS011;39398;48.382;9.802;2022-11-09T04:59:24;2.92;;;2.42;;
53521;SDS011;39398;48.382;9.802;2022-11-09T05:00:26;4.70;;;2.60;;
53521;SDS011;39398;48.382;9.802;2022-11-09T05:01:27;3.47;;;2.42;;
53521;SDS011;39398;48.382;9.802;2022-11-09T05:02:29;3.00;;;2.42;;
53521;SDS011;39398;48.382;9.802;2022-11-09T05:03:30;3.70;;;2.20;;
53521;SDS011;39398;48.382;9.802;2022-11-09T05:04:32;5.65;;;2.10;;
53521;SDS011;39398;48.382;9.802;2022-11-09T05:05:34;4.05;;;2.30;;
53521;SDS011;39398;48.382;9.802;2022-11-09T05:06:36;3.97;;;2.05;;
53521;SDS011;39398;48.382;9.802;2022-11-09T05:07:38;3.67;;;2.05;;
53521;SDS011;39398;48.382;9.802;2022-11-09T05:08:39;3.47;;;2.00;;
53521;SDS011;39398;48.382;9.802;2022-11-09T05:09:40;3.17;;;2.03;;
53521;SDS011;39398;48.382;9.802;2022-11-09T05:10:42;1.90;;;1.70;;
53521;SDS011;39398;48.382;9.802;2022-11-09T05:11:45;5.28;;;1.60;;
53521;SDS011;39398;48.382;9.802;2022-11-09T05:12:46;2.28;;;1.73;;
53521;SDS011;39398;48.382;9.802;2022-11-09T05:13:48;6.53;;;1.85;;
53521;SDS011;39398;48.382;9.802;2022-11-09T05:14:49;2.83;;;1.92;;
53521;SDS011;39398;48.382;9.802;2022-11-09T05:15:51;4.28;;;1.75;;
53521;SDS011;39398;48.382;9.802;2022-11-09T05:16:52;1.85;;;1.67;;
53521;SDS011;39398;48.382;9.802;2022-11-09T05:17:54;2.60;;;2.03;;
53521;SDS011;39398;48.382;9.802;2022-11-09T05:18:55;5.18;;;1.80;;
53521;SDS011;39398;48.382;9.802;2022-11-09T05:19:57;1.80;;;1.58;;
53521;SDS011;39398;48.382;9.802;2022-11-09T05:20:58;5.05;;;2.15;;
53521;SDS011;39398;48.382;9.802;2022-11-09T05:22:00;2.30;;;1.77;;
53521;SDS011;39398;48.382;9.802;2022-11-09T05:23:02;3.28;;;1.90;;
53521;SDS011;39398;48.382;9.802;2022-11-09T05:24:03;2.88;;;1.90;;
53521;SDS011;39398;48.382;9.802;2022-11-09T05:25:05;5.75;;;2.10;;
53521;SDS011;39398;48.382;9.802;2022-11-09T05:26:07;3.38;;;2.00;;
53521;SDS011;39398;48.382;9.802;2022-11-09T05:27:10;3.42;;;2.08;;
53521;SDS011;39398;48.382;9.802;2022-11-09T05:28:12;2.58;;;2.30;;
53521;SDS011;39398;48.382;9.802;2022-11-09T05:29:13;3.45;;;1.90;;
53521;SDS011;39398;48.382;9.802;2022-11-09T05:30:15;2.50;;;2.03;;
53521;SDS011;39398;48.382;9.802;2022-11-09T05:31:16;3.55;;;2.03;;
53521;SDS011;39398;48.382;9.802;2022-11-09T05:32:18;4.28;;;2.75;;
53521;SDS011;39398;48.382;9.802;2022-11-09T05:33:19;5.80;;;3.88;;
53521;SDS011;39398;48.382;9.802;2022-11-09T05:34:21;4.03;;;2.05;;
53521;SDS011;39398;48.382;9.802;2022-11-09T05:35:23;4.05;;;2.38;;
53521;SDS011;39398;48.382;9.802;2022-11-09T05:36:25;2.30;;;1.98;;
53521;SDS011;39398;48.382;9.802;2022-11-09T05:37:27;3.28;;;2.30;;
53521;SDS011;39398;48.382;9.802;2022-11-09T05:38:29;2.95;;;1.77;;
53521;SDS011;39398;48.382;9.802;2022-11-09T05:39:30;3.90;;;2.25;;
53521;SDS011;39398;48.382;9.802;2022-11-09T05:40:32;3.30;;;2.00;;
53521;SDS011;39398;48.382;9.802;2022-11-09T05:41:33;4.22;;;2.25;;
53521;SDS011;39398;48.382;9.802;2022-11-09T05:42:37;2.72;;;2.20;;
53521;SDS011;39398;48.382;9.802;2022-11-09T05:43:39;4.68;;;2.50;;
53521;SDS011;39398;48.382;9.802;2022-11-09T05:44:41;3.20;;;2.35;;
53521;SDS011;39398;48.382;9.802;2022-11-09T05:45:43;4.68;;;2.47;;
53521;SDS011;39398;48.382;9.802;2022-11-09T05:46:44;3.65;;;2.42;;
53521;SDS011;39398;48.382;9.802;2022-11-09T05:47:46;3.63;;;2.30;;
53521;SDS011;39398;48.382;9.802;2022-11-09T05:48:47;3.83;;;2.50;;
53521;SDS011;39398;48.382;9.802;2022-11-09T05:49:49;3.40;;;2.22;;
53521;SDS011;39398;48.382;9.802;2022-11-09T05:50:50;3.95;;;2.20;;
53521;SDS011;39398;48.382;9.802;2022-11-09T05:51:52;5.95;;;2.53;;
53521;SDS011;39398;48.382;9.802;2022-11-09T05:52:53;5.40;;;2.30;;
53521;SDS011;39398;48.382;9.802;2022-11-09T05:53:55;4.47;;;2.42;;
53521;SDS011;39398;48.382;9.802;2022-11-09T05:54:56;3.72;;;2.50;;
53521;SDS011;39398;48.382;9.802;2022-11-09T05:56:00;6.75;;;5.15;;
53521;SDS011;39398;48.382;9.802;2022-11-09T05:57:02;7.20;;;4.75;;
53521;SDS011;39398;48.382;9.802;2022-11-09T05:58:05;6.95;;;5.47;;
53521;SDS011;39398;48.382;9.802;2022-11-09T05:59:07;10.32;;;7.57;;
53521;SDS011;39398;48.382;9.802;2022-11-09T06:00:09;4.88;;;3.30;;
53521;SDS011;39398;48.382;9.802;2022-11-09T06:01:11;2.65;;;2.38;;
53521;SDS011;39398;48.382;9.802;2022-11-09T06:02:14;2.90;;;2.33;;
53521;SDS011;39398;48.382;9.802;2022-11-09T06:03:16;3.55;;;2.55;;
53521;SDS011;39398;48.382;9.802;2022-11-09T06:04:18;4.70;;;2.55;;
53521;SDS011;39398;48.382;9.802;2022-11-09T06:05:19;3.45;;;2.38;;
53521;SDS011;39398;48.382;9.802;2022-11-09T06:06:21;8.00;;;3.17;;
53521;SDS011;39398;48.382;9.802;2022-11-09T06:07:22;3.85;;;3.10;;
53521;SDS011;39398;48.382;9.802;2022-11-09T06:08:24;4.93;;;3.50;;
53521;SDS011;39398;48.382;9.802;2022-11-09T06:09:25;6.75;;;4.00;;
53521;SDS011;39398;48.382;9.802;2022-11-09T06:10:26;9.77;;;4.38;;
53521;SDS011;39398;48.382;9.802;2022-11-09T06:11:28;9.10;;;5.03;;
53521;SDS011;39398;48.382;9.802;2022-11-09T06:12:29;7.60;;;4.80;;
53521;SDS011;39398;48.382;9.802;2022-11-09T06:13:32;5.28;;;3.90;;
53521;SDS011;39398;48.382;9.802;2022-11-09T06:14:34;6.20;;;3.90;;